sensor_id;sensor_type;location;lat;lon;timestamp;P1;durP1;ratioP1;P2;durP2;ratioP2
59788;SDS011;47353;51.614;5.530;2023-07-20T00:00:00;9.75;;;7.03;;
59788;SDS011;47353;51.614;5.530;2023-07-20T00:02:26;9.70;;;7.45;;
59788;SDS011;47353;51.614;5.530;2023-07-20T00:04:51;12.80;;;7.68;;
59788;SDS011;47353;51.614;5.530;2023-07-20T00:07:17;10.27;;;7.28;;
59788;SDS011;47353;51.614;5.530;2023-07-20T00:09:42;10.73;;;7.50;;
59788;SDS011;47353;51.614;5.530;2023-07-20T00:12:07;12.40;;;8.10;;
59788;SDS011;47353;51.614;5.530;2023-07-20T00:14:33;12.88;;;7.82;;
59788;SDS011;47353;51.614;5.530;2023-07-20T00:16:58;13.00;;;8.18;;
59788;SDS011;47353;51.614;5.530;2023-07-20T00:19:27;11.38;;;7.82;;
59788;SDS011;47353;51.614;5.530;2023-07-20T00:21:53;11.82;;;8.23;;
59788;SDS011;47353;51.614;5.530;2023-07-20T00:24:19;14.63;;;8.93;;
59788;SDS011;47353;51.614;5.530;2023-07-20T00:26:45;14.10;;;8.20;;
59788;SDS011;47353;51.614;5.530;2023-07-20T00:29:11;15.70;;;8.23;;
59788;SDS011;47353;51.614;5.530;2023-07-20T00:31:36;14.93;;;9.00;;
59788;SDS011;47353;51.614;5.530;2023-07-20T00:34:05;15.00;;;8.50;;
59788;SDS011;47353;51.614;5.530;2023-07-20T00:36:31;11.27;;;8.13;;
59788;SDS011;47353;51.614;5.530;2023-07-20T00:38:56;17.33;;;8.82;;
59788;SDS011;47353;51.614;5.530;2023-07-20T00:41:22;15.43;;;8.77;;
59788;SDS011;47353;51.614;5.530;2023-07-20T00:43:47;15.43;;;8.60;;
59788;SDS011;47353;51.614;5.530;2023-07-20T00:46:13;15.10;;;8.68;;
59788;SDS011;47353;51.614;5.530;2023-07-20T00:48:39;11.48;;;7.68;;
59788;SDS011;47353;51.614;5.530;2023-07-20T00:51:06;15.40;;;8.40;;
59788;SDS011;47353;51.614;5.530;2023-07-20T00:53:31;16.60;;;8.63;;
59788;SDS011;47353;51.614;5.530;2023-07-20T00:55:57;14.60;;;8.45;;
59788;SDS011;47353;51.614;5.530;2023-07-20T00:58:23;12.35;;;8.55;;
59788;SDS011;47353;51.614;5.530;2023-07-20T01:00:48;13.40;;;8.38;;
59788;SDS011;47353;51.614;5.530;2023-07-20T01:03:14;12.68;;;8.93;;
59788;SDS011;47353;51.614;5.530;2023-07-20T01:05:54;14.55;;;8.48;;
59788;SDS011;47353;51.614;5.530;2023-07-20T01:08:39;12.25;;;8.10;;
59788;SDS011;47353;51.614;5.530;2023-07-20T01:11:56;13.68;;;8.77;;
59788;SDS011;47353;51.614;5.530;2023-07-20T01:14:15;12.55;;;8.50;;
59788;SDS011;47353;51.614;5.530;2023-07-20T01:16:42;12.27;;;8.88;;
59788;SDS011;47353;51.614;5.530;2023-07-20T01:19:07;11.63;;;8.68;;
59788;SDS011;47353;51.614;5.530;2023-07-20T01:21:55;12.95;;;8.55;;
59788;SDS011;47353;51.614;5.530;2023-07-20T01:24:44;15.40;;;9.38;;
59788;SDS011;47353;51.614;5.530;2023-07-20T01:32:47;14.07;;;10.07;;
59788;SDS011;47353;51.614;5.530;2023-07-20T01:35:13;14.07;;;9.90;;
59788;SDS011;47353;51.614;5.530;2023-07-20T01:37:42;14.60;;;10.25;;
59788;SDS011;47353;51.614;5.530;2023-07-20T01:40:10;15.10;;;11.05;;
59788;SDS011;47353;51.614;5.530;2023-07-20T01:42:36;14.32;;;10.35;;
59788;SDS011;47353;51.614;5.530;2023-07-20T01:45:02;14.48;;;11.10;;
59788;SDS011;47353;51.614;5.530;2023-07-20T01:47:28;15.52;;;11.63;;
59788;SDS011;47353;51.614;5.530;2023-07-20T01:49:53;17.60;;;12.27;;
59788;SDS011;47353;51.614;5.530;2023-07-20T01:52:18;17.67;;;13.27;;
59788;SDS011;47353;51.614;5.530;2023-07-20T01:54:44;17.67;;;13.50;;
59788;SDS011;47353;51.614;5.530;2023-07-20T01:57:09;15.73;;;13.55;;
59788;SDS011;47353;51.614;5.530;2023-07-20T01:59:34;18.50;;;13.77;;
59788;SDS011;47353;51.614;5.530;2023-07-20T02:02:00;19.83;;;14.43;;
59788;SDS011;47353;51.614;5.530;2023-07-20T02:04:25;21.48;;;14.63;;
59788;SDS011;47353;51.614;5.530;2023-07-20T02:06:50;19.00;;;14.52;;
59788;SDS011;47353;51.614;5.530;2023-07-20T02:09:16;19.25;;;15.07;;
59788;SDS011;47353;51.614;5.530;2023-07-20T02:11:41;19.30;;;14.85;;
59788;SDS011;47353;51.614;5.530;2023-07-20T02:14:07;20.63;;;15.05;;
59788;SDS011;47353;51.614;5.530;2023-07-20T02:16:32;22.10;;;15.10;;
59788;SDS011;47353;51.614;5.530;2023-07-20T02:18:57;17.75;;;14.52;;
59788;SDS011;47353;51.614;5.530;2023-07-20T02:21:23;17.60;;;14.70;;
59788;SDS011;47353;51.614;5.530;2023-07-20T02:23:49;19.05;;;14.48;;
59788;SDS011;47353;51.614;5.530;2023-07-20T02:26:14;17.35;;;14.20;;
59788;SDS011;47353;51.614;5.530;2023-07-20T02:28:40;16.88;;;14.27;;
59788;SDS011;47353;51.614;5.530;2023-07-20T02:31:06;19.17;;;14.43;;
59788;SDS011;47353;51.614;5.530;2023-07-20T02:33:31;17.40;;;14.73;;
59788;SDS011;47353;51.614;5.530;2023-07-20T02:35:57;20.45;;;15.35;;
59788;SDS011;47353;51.614;5.530;2023-07-20T02:38:22;19.90;;;14.70;;
59788;SDS011;47353;51.614;5.530;2023-07-20T02:40:48;20.48;;;14.85;;
59788;SDS011;47353;51.614;5.530;2023-07-20T02:43:13;19.83;;;15.38;;
59788;SDS011;47353;51.614;5.530;2023-07-20T02:45:41;20.10;;;15.18;;
59788;SDS011;47353;51.614;5.530;2023-07-20T02:48:10;21.13;;;15.65;;
59788;SDS011;47353;51.614;5.530;2023-07-20T02:50:35;20.67;;;15.73;;
59788;SDS011;47353;51.614;5.530;2023-07-20T02:53:01;20.98;;;15.25;;
59788;SDS011;47353;51.614;5.530;2023-07-20T02:55:27;21.20;;;15.80;;
59788;SDS011;47353;51.614;5.530;2023-07-20T02:57:52;20.25;;;16.15;;
59788;SDS011;47353;51.614;5.530;2023-07-20T03:00:18;22.60;;;16.95;;
59788;SDS011;47353;51.614;5.530;2023-07-20T03:02:44;22.05;;;17.00;;
59788;SDS011;47353;51.614;5.530;2023-07-20T03:05:13;22.70;;;16.58;;
59788;SDS011;47353;51.614;5.530;2023-07-20T03:07:38;20.13;;;15.45;;
59788;SDS011;47353;51.614;5.530;2023-07-20T03:10:04;20.30;;;16.45;;
59788;SDS011;47353;51.614;5.530;2023-07-20T03:12:32;19.70;;;15.70;;
59788;SDS011;47353;51.614;5.530;2023-07-20T03:14:59;17.70;;;14.93;;
59788;SDS011;47353;51.614;5.530;2023-07-20T03:17:24;18.52;;;13.90;;
59788;SDS011;47353;51.614;5.530;2023-07-20T03:19:50;16.63;;;13.27;;
59788;SDS011;47353;51.614;5.530;2023-07-20T03:22:15;17.85;;;14.13;;
59788;SDS011;47353;51.614;5.530;2023-07-20T03:24:41;17.65;;;13.57;;
59788;SDS011;47353;51.614;5.530;2023-07-20T03:27:06;15.52;;;13.32;;
59788;SDS011;47353;51.614;5.530;2023-07-20T03:29:32;16.40;;;13.05;;
59788;SDS011;47353;51.614;5.530;2023-07-20T03:31:58;15.27;;;12.75;;
59788;SDS011;47353;51.614;5.530;2023-07-20T03:34:24;14.85;;;12.45;;
59788;SDS011;47353;51.614;5.530;2023-07-20T03:36:50;15.20;;;12.65;;
59788;SDS011;47353;51.614;5.530;2023-07-20T03:39:15;14.32;;;11.90;;
59788;SDS011;47353;51.614;5.530;2023-07-20T03:41:41;12.98;;;11.48;;
59788;SDS011;47353;51.614;5.530;2023-07-20T03:44:08;13.57;;;11.07;;
59788;SDS011;47353;51.614;5.530;2023-07-20T03:46:33;13.32;;;11.57;;
59788;SDS011;47353;51.614;5.530;2023-07-20T03:48:59;13.18;;;11.10;;
59788;SDS011;47353;51.614;5.530;2023-07-20T03:51:25;13.57;;;10.85;;
59788;SDS011;47353;51.614;5.530;2023-07-20T03:53:51;14.80;;;10.52;;
59788;SDS011;47353;51.614;5.530;2023-07-20T03:56:16;11.75;;;10.25;;
59788;SDS011;47353;51.614;5.530;2023-07-20T03:58:41;12.80;;;9.82;;
59788;SDS011;47353;51.614;5.530;2023-07-20T04:01:07;12.13;;;10.02;;
59788;SDS011;47353;51.614;5.530;2023-07-20T04:03:33;15.55;;;10.50;;
59788;SDS011;47353;51.614;5.530;2023-07-20T04:05:58;12.05;;;9.98;;
59788;SDS011;47353;51.614;5.530;2023-07-20T04:08:24;12.80;;;10.65;;
59788;SDS011;47353;51.614;5.530;2023-07-20T04:10:49;12.68;;;10.13;;
59788;SDS011;47353;51.614;5.530;2023-07-20T04:13:15;14.77;;;10.75;;
59788;SDS011;47353;51.614;5.530;2023-07-20T04:15:41;14.23;;;10.50;;
59788;SDS011;47353;51.614;5.530;2023-07-20T04:18:07;13.77;;;10.18;;
59788;SDS011;47353;51.614;5.530;2023-07-20T04:20:33;15.27;;;10.45;;
59788;SDS011;47353;51.614;5.530;2023-07-20T04:22:58;13.73;;;9.70;;
59788;SDS011;47353;51.614;5.530;2023-07-20T04:25:23;11.27;;;9.43;;
59788;SDS011;47353;51.614;5.530;2023-07-20T04:27:49;11.23;;;9.18;;
59788;SDS011;47353;51.614;5.530;2023-07-20T04:30:16;13.25;;;9.52;;
59788;SDS011;47353;51.614;5.530;2023-07-20T04:32:45;11.13;;;9.00;;
59788;SDS011;47353;51.614;5.530;2023-07-20T04:35:16;14.65;;;10.50;;
59788;SDS011;47353;51.614;5.530;2023-07-20T04:38:02;13.63;;;10.00;;
59788;SDS011;47353;51.614;5.530;2023-07-20T04:40:27;13.65;;;10.02;;
59788;SDS011;47353;51.614;5.530;2023-07-20T04:42:52;14.60;;;9.88;;
59788;SDS011;47353;51.614;5.530;2023-07-20T04:45:19;13.20;;;10.00;;
59788;SDS011;47353;51.614;5.530;2023-07-20T04:47:44;13.30;;;9.48;;
59788;SDS011;47353;51.614;5.530;2023-07-20T04:50:10;11.15;;;9.13;;
59788;SDS011;47353;51.614;5.530;2023-07-20T04:52:35;10.80;;;8.80;;
59788;SDS011;47353;51.614;5.530;2023-07-20T04:55:00;9.57;;;8.43;;
59788;SDS011;47353;51.614;5.530;2023-07-20T04:57:26;10.45;;;9.00;;
59788;SDS011;47353;51.614;5.530;2023-07-20T04:59:52;10.93;;;8.52;;
59788;SDS011;47353;51.614;5.530;2023-07-20T05:02:17;10.68;;;8.70;;
59788;SDS011;47353;51.614;5.530;2023-07-20T05:04:42;9.77;;;7.78;;
59788;SDS011;47353;51.614;5.530;2023-07-20T05:07:08;10.55;;;8.63;;
59788;SDS011;47353;51.614;5.530;2023-07-20T05:09:33;9.40;;;7.75;;
59788;SDS011;47353;51.614;5.530;2023-07-20T05:11:59;10.68;;;8.63;;
59788;SDS011;47353;51.614;5.530;2023-07-20T05:14:24;10.43;;;7.88;;
59788;SDS011;47353;51.614;5.530;2023-07-20T05:16:49;9.85;;;7.65;;
59788;SDS011;47353;51.614;5.530;2023-07-20T05:19:15;9.60;;;7.78;;
59788;SDS011;47353;51.614;5.530;2023-07-20T05:21:40;10.10;;;8.02;;
59788;SDS011;47353;51.614;5.530;2023-07-20T05:24:06;10.18;;;9.00;;
59788;SDS011;47353;51.614;5.530;2023-07-20T05:26:32;12.20;;;8.98;;
59788;SDS011;47353;51.614;5.530;2023-07-20T05:28:58;10.52;;;9.10;;
59788;SDS011;47353;51.614;5.530;2023-07-20T05:31:23;11.90;;;9.15;;
59788;SDS011;47353;51.614;5.530;2023-07-20T05:33:49;12.18;;;9.88;;
59788;SDS011;47353;51.614;5.530;2023-07-20T05:36:15;12.77;;;9.98;;
59788;SDS011;47353;51.614;5.530;2023-07-20T05:38:40;13.05;;;10.65;;
59788;SDS011;47353;51.614;5.530;2023-07-20T05:41:06;13.07;;;10.73;;
59788;SDS011;47353;51.614;5.530;2023-07-20T05:43:35;12.20;;;10.50;;
59788;SDS011;47353;51.614;5.530;2023-07-20T05:46:00;10.25;;;8.13;;
59788;SDS011;47353;51.614;5.530;2023-07-20T05:48:26;11.23;;;8.30;;
59788;SDS011;47353;51.614;5.530;2023-07-20T05:50:51;21.13;;;7.93;;
59788;SDS011;47353;51.614;5.530;2023-07-20T05:53:17;9.27;;;7.65;;
59788;SDS011;47353;51.614;5.530;2023-07-20T05:55:42;4.85;;;4.40;;
59788;SDS011;47353;51.614;5.530;2023-07-20T05:58:07;8.20;;;6.97;;
59788;SDS011;47353;51.614;5.530;2023-07-20T06:00:33;9.43;;;7.53;;
59788;SDS011;47353;51.614;5.530;2023-07-20T06:02:58;11.00;;;7.35;;
59788;SDS011;47353;51.614;5.530;2023-07-20T06:05:24;9.55;;;7.65;;
59788;SDS011;47353;51.614;5.530;2023-07-20T06:07:50;8.35;;;6.93;;
59788;SDS011;47353;51.614;5.530;2023-07-20T06:10:15;8.90;;;7.43;;
59788;SDS011;47353;51.614;5.530;2023-07-20T06:12:41;8.55;;;7.72;;
59788;SDS011;47353;51.614;5.530;2023-07-20T06:15:12;10.30;;;7.43;;
59788;SDS011;47353;51.614;5.530;2023-07-20T06:17:54;8.18;;;5.80;;
59788;SDS011;47353;51.614;5.530;2023-07-20T06:20:21;9.57;;;7.97;;
59788;SDS011;47353;51.614;5.530;2023-07-20T06:22:47;8.38;;;7.50;;
59788;SDS011;47353;51.614;5.530;2023-07-20T06:25:13;8.70;;;7.32;;
59788;SDS011;47353;51.614;5.530;2023-07-20T06:27:38;9.80;;;7.38;;
59788;SDS011;47353;51.614;5.530;2023-07-20T06:30:04;9.00;;;7.35;;
59788;SDS011;47353;51.614;5.530;2023-07-20T06:32:29;10.48;;;8.32;;
59788;SDS011;47353;51.614;5.530;2023-07-20T06:34:55;9.20;;;8.27;;
59788;SDS011;47353;51.614;5.530;2023-07-20T06:37:20;10.18;;;9.18;;
59788;SDS011;47353;51.614;5.530;2023-07-20T06:39:45;9.70;;;8.70;;
59788;SDS011;47353;51.614;5.530;2023-07-20T06:42:11;7.00;;;6.30;;
59788;SDS011;47353;51.614;5.530;2023-07-20T06:44:36;9.15;;;8.25;;
59788;SDS011;47353;51.614;5.530;2023-07-20T06:47:02;10.27;;;9.18;;
59788;SDS011;47353;51.614;5.530;2023-07-20T06:49:28;7.75;;;6.93;;
59788;SDS011;47353;51.614;5.530;2023-07-20T06:51:53;9.30;;;7.75;;
59788;SDS011;47353;51.614;5.530;2023-07-20T06:54:19;8.25;;;7.28;;
59788;SDS011;47353;51.614;5.530;2023-07-20T06:56:45;7.57;;;6.78;;
59788;SDS011;47353;51.614;5.530;2023-07-20T06:59:10;9.45;;;7.18;;
59788;SDS011;47353;51.614;5.530;2023-07-20T07:01:35;8.02;;;7.15;;
59788;SDS011;47353;51.614;5.530;2023-07-20T07:04:01;7.60;;;6.95;;
59788;SDS011;47353;51.614;5.530;2023-07-20T07:06:26;6.95;;;6.18;;
59788;SDS011;47353;51.614;5.530;2023-07-20T07:08:53;7.50;;;6.78;;
59788;SDS011;47353;51.614;5.530;2023-07-20T07:11:18;15.15;;;6.80;;
59788;SDS011;47353;51.614;5.530;2023-07-20T07:13:44;6.65;;;5.93;;
59788;SDS011;47353;51.614;5.530;2023-07-20T07:16:12;6.28;;;5.53;;
59788;SDS011;47353;51.614;5.530;2023-07-20T07:18:39;5.72;;;5.10;;
59788;SDS011;47353;51.614;5.530;2023-07-20T07:21:05;5.40;;;4.72;;
59788;SDS011;47353;51.614;5.530;2023-07-20T07:23:30;5.97;;;5.38;;
59788;SDS011;47353;51.614;5.530;2023-07-20T07:25:56;6.15;;;5.63;;
59788;SDS011;47353;51.614;5.530;2023-07-20T07:28:21;6.88;;;5.55;;
59788;SDS011;47353;51.614;5.530;2023-07-20T07:30:47;6.05;;;3.50;;
59788;SDS011;47353;51.614;5.530;2023-07-20T07:33:13;3.33;;;3.00;;
59788;SDS011;47353;51.614;5.530;2023-07-20T07:35:38;4.07;;;3.67;;
59788;SDS011;47353;51.614;5.530;2023-07-20T07:38:04;4.97;;;4.57;;
59788;SDS011;47353;51.614;5.530;2023-07-20T07:40:31;5.90;;;5.18;;
59788;SDS011;47353;51.614;5.530;2023-07-20T07:42:56;3.63;;;3.10;;
59788;SDS011;47353;51.614;5.530;2023-07-20T07:45:22;2.80;;;2.10;;
59788;SDS011;47353;51.614;5.530;2023-07-20T07:47:47;2.65;;;2.45;;
59788;SDS011;47353;51.614;5.530;2023-07-20T07:50:13;3.40;;;2.80;;
59788;SDS011;47353;51.614;5.530;2023-07-20T07:52:38;3.17;;;2.85;;
59788;SDS011;47353;51.614;5.530;2023-07-20T07:55:04;4.18;;;3.28;;
59788;SDS011;47353;51.614;5.530;2023-07-20T07:57:30;3.42;;;3.13;;
59788;SDS011;47353;51.614;5.530;2023-07-20T07:59:55;4.45;;;4.05;;
59788;SDS011;47353;51.614;5.530;2023-07-20T08:02:20;3.83;;;3.28;;
59788;SDS011;47353;51.614;5.530;2023-07-20T08:04:46;7.40;;;3.15;;
59788;SDS011;47353;51.614;5.530;2023-07-20T08:07:12;4.32;;;3.70;;
59788;SDS011;47353;51.614;5.530;2023-07-20T08:09:37;5.13;;;3.80;;
59788;SDS011;47353;51.614;5.530;2023-07-20T08:12:03;3.83;;;3.40;;
59788;SDS011;47353;51.614;5.530;2023-07-20T08:14:28;3.53;;;3.22;;
59788;SDS011;47353;51.614;5.530;2023-07-20T08:16:54;4.10;;;3.70;;
59788;SDS011;47353;51.614;5.530;2023-07-20T08:19:19;4.28;;;3.63;;
59788;SDS011;47353;51.614;5.530;2023-07-20T08:21:45;4.07;;;3.67;;
59788;SDS011;47353;51.614;5.530;2023-07-20T08:24:10;5.00;;;4.05;;
59788;SDS011;47353;51.614;5.530;2023-07-20T08:26:35;4.63;;;4.20;;
59788;SDS011;47353;51.614;5.530;2023-07-20T08:29:01;6.13;;;4.30;;
59788;SDS011;47353;51.614;5.530;2023-07-20T08:31:26;5.95;;;4.00;;
59788;SDS011;47353;51.614;5.530;2023-07-20T08:33:53;4.22;;;3.67;;
59788;SDS011;47353;51.614;5.530;2023-07-20T08:36:18;3.85;;;3.13;;
59788;SDS011;47353;51.614;5.530;2023-07-20T08:38:44;3.75;;;3.45;;
59788;SDS011;47353;51.614;5.530;2023-07-20T08:41:09;4.15;;;3.67;;
59788;SDS011;47353;51.614;5.530;2023-07-20T08:43:35;4.07;;;3.60;;
59788;SDS011;47353;51.614;5.530;2023-07-20T08:46:02;4.93;;;3.13;;
59788;SDS011;47353;51.614;5.530;2023-07-20T08:48:29;5.72;;;3.60;;
59788;SDS011;47353;51.614;5.530;2023-07-20T08:50:55;4.80;;;3.17;;
59788;SDS011;47353;51.614;5.530;2023-07-20T08:53:23;4.05;;;3.03;;
59788;SDS011;47353;51.614;5.530;2023-07-20T08:55:50;4.93;;;3.90;;
59788;SDS011;47353;51.614;5.530;2023-07-20T08:58:19;4.28;;;3.88;;
59788;SDS011;47353;51.614;5.530;2023-07-20T09:00:45;5.05;;;3.35;;
59788;SDS011;47353;51.614;5.530;2023-07-20T09:03:11;5.97;;;4.60;;
59788;SDS011;47353;51.614;5.530;2023-07-20T09:05:37;4.75;;;4.03;;
59788;SDS011;47353;51.614;5.530;2023-07-20T09:08:05;5.50;;;3.88;;
59788;SDS011;47353;51.614;5.530;2023-07-20T09:10:30;5.30;;;3.60;;
59788;SDS011;47353;51.614;5.530;2023-07-20T09:12:56;5.30;;;4.10;;
59788;SDS011;47353;51.614;5.530;2023-07-20T09:15:22;5.15;;;3.70;;
59788;SDS011;47353;51.614;5.530;2023-07-20T09:17:48;5.93;;;2.85;;
59788;SDS011;47353;51.614;5.530;2023-07-20T09:20:16;4.28;;;3.88;;
59788;SDS011;47353;51.614;5.530;2023-07-20T09:22:45;3.80;;;3.40;;
59788;SDS011;47353;51.614;5.530;2023-07-20T09:27:46;3.60;;;3.30;;
59788;SDS011;47353;51.614;5.530;2023-07-20T09:30:14;3.47;;;2.95;;
59788;SDS011;47353;51.614;5.530;2023-07-20T09:32:41;2.55;;;2.20;;
59788;SDS011;47353;51.614;5.530;2023-07-20T09:35:14;2.90;;;2.60;;
59788;SDS011;47353;51.614;5.530;2023-07-20T09:37:45;3.63;;;2.65;;
59788;SDS011;47353;51.614;5.530;2023-07-20T09:40:14;2.25;;;2.00;;
59788;SDS011;47353;51.614;5.530;2023-07-20T09:42:41;3.13;;;2.08;;
59788;SDS011;47353;51.614;5.530;2023-07-20T09:45:07;3.10;;;1.95;;
59788;SDS011;47353;51.614;5.530;2023-07-20T09:47:35;2.85;;;2.28;;
59788;SDS011;47353;51.614;5.530;2023-07-20T09:50:02;2.30;;;2.05;;
59788;SDS011;47353;51.614;5.530;2023-07-20T09:52:29;2.80;;;2.03;;
59788;SDS011;47353;51.614;5.530;2023-07-20T09:54:54;3.45;;;2.00;;
59788;SDS011;47353;51.614;5.530;2023-07-20T09:57:20;2.92;;;1.90;;
59788;SDS011;47353;51.614;5.530;2023-07-20T09:59:46;2.90;;;2.15;;
59788;SDS011;47353;51.614;5.530;2023-07-20T10:02:16;2.47;;;2.00;;
59788;SDS011;47353;51.614;5.530;2023-07-20T10:04:47;2.30;;;2.10;;
59788;SDS011;47353;51.614;5.530;2023-07-20T10:07:17;3.15;;;2.10;;
59788;SDS011;47353;51.614;5.530;2023-07-20T10:09:46;2.53;;;1.80;;
59788;SDS011;47353;51.614;5.530;2023-07-20T10:12:13;2.83;;;2.33;;
59788;SDS011;47353;51.614;5.530;2023-07-20T10:14:41;4.55;;;2.40;;
59788;SDS011;47353;51.614;5.530;2023-07-20T10:17:15;4.97;;;2.17;;
59788;SDS011;47353;51.614;5.530;2023-07-20T10:19:44;4.47;;;2.15;;
59788;SDS011;47353;51.614;5.530;2023-07-20T10:22:16;1.75;;;1.65;;
59788;SDS011;47353;51.614;5.530;2023-07-20T10:24:45;2.88;;;1.92;;
59788;SDS011;47353;51.614;5.530;2023-07-20T10:27:12;3.25;;;2.17;;
59788;SDS011;47353;51.614;5.530;2023-07-20T10:29:38;2.10;;;1.90;;
59788;SDS011;47353;51.614;5.530;2023-07-20T10:32:04;4.75;;;1.85;;
59788;SDS011;47353;51.614;5.530;2023-07-20T10:34:30;3.03;;;2.05;;
59788;SDS011;47353;51.614;5.530;2023-07-20T10:36:57;4.22;;;2.00;;
59788;SDS011;47353;51.614;5.530;2023-07-20T10:39:26;5.78;;;2.30;;
59788;SDS011;47353;51.614;5.530;2023-07-20T10:42:02;3.63;;;1.80;;
59788;SDS011;47353;51.614;5.530;2023-07-20T10:44:37;4.88;;;1.50;;
59788;SDS011;47353;51.614;5.530;2023-07-20T10:47:08;3.38;;;1.73;;
59788;SDS011;47353;51.614;5.530;2023-07-20T10:49:35;1.65;;;1.30;;
59788;SDS011;47353;51.614;5.530;2023-07-20T10:52:36;2.70;;;1.50;;
59788;SDS011;47353;51.614;5.530;2023-07-20T10:55:15;1.60;;;1.27;;
59788;SDS011;47353;51.614;5.530;2023-07-20T10:57:41;1.63;;;1.05;;
59788;SDS011;47353;51.614;5.530;2023-07-20T11:00:13;1.58;;;1.20;;
59788;SDS011;47353;51.614;5.530;2023-07-20T11:02:42;3.00;;;1.30;;
59788;SDS011;47353;51.614;5.530;2023-07-20T11:07:57;2.22;;;1.08;;
59788;SDS011;47353;51.614;5.530;2023-07-20T11:10:22;1.55;;;1.27;;
59788;SDS011;47353;51.614;5.530;2023-07-20T11:15:47;1.83;;;1.30;;
59788;SDS011;47353;51.614;5.530;2023-07-20T11:18:24;2.10;;;1.42;;
59788;SDS011;47353;51.614;5.530;2023-07-20T11:20:51;2.22;;;1.40;;
59788;SDS011;47353;51.614;5.530;2023-07-20T11:23:17;1.40;;;1.08;;
59788;SDS011;47353;51.614;5.530;2023-07-20T11:25:44;2.30;;;1.10;;
59788;SDS011;47353;51.614;5.530;2023-07-20T11:28:10;1.52;;;1.00;;
59788;SDS011;47353;51.614;5.530;2023-07-20T11:30:36;1.85;;;0.80;;
59788;SDS011;47353;51.614;5.530;2023-07-20T11:33:03;1.58;;;0.80;;
59788;SDS011;47353;51.614;5.530;2023-07-20T11:35:28;1.55;;;0.80;;
59788;SDS011;47353;51.614;5.530;2023-07-20T11:37:54;1.25;;;0.93;;
59788;SDS011;47353;51.614;5.530;2023-07-20T11:40:20;1.25;;;0.90;;
59788;SDS011;47353;51.614;5.530;2023-07-20T11:42:45;0.60;;;0.60;;
59788;SDS011;47353;51.614;5.530;2023-07-20T11:45:11;1.65;;;0.75;;
59788;SDS011;47353;51.614;5.530;2023-07-20T11:47:39;1.63;;;0.80;;
59788;SDS011;47353;51.614;5.530;2023-07-20T11:50:07;1.17;;;0.93;;
59788;SDS011;47353;51.614;5.530;2023-07-20T11:52:32;2.45;;;0.90;;
59788;SDS011;47353;51.614;5.530;2023-07-20T11:54:58;2.58;;;0.80;;
59788;SDS011;47353;51.614;5.530;2023-07-20T11:57:24;1.65;;;0.85;;
59788;SDS011;47353;51.614;5.530;2023-07-20T11:59:56;1.90;;;0.80;;
59788;SDS011;47353;51.614;5.530;2023-07-20T12:02:24;2.63;;;0.82;;
59788;SDS011;47353;51.614;5.530;2023-07-20T12:04:52;1.10;;;0.75;;
59788;SDS011;47353;51.614;5.530;2023-07-20T12:07:19;1.02;;;0.82;;
59788;SDS011;47353;51.614;5.530;2023-07-20T12:09:44;2.13;;;0.95;;
59788;SDS011;47353;51.614;5.530;2023-07-20T12:12:11;1.17;;;0.90;;
59788;SDS011;47353;51.614;5.530;2023-07-20T12:14:40;1.23;;;0.80;;
59788;SDS011;47353;51.614;5.530;2023-07-20T12:17:07;2.75;;;0.98;;
59788;SDS011;47353;51.614;5.530;2023-07-20T12:19:37;1.42;;;0.90;;
59788;SDS011;47353;51.614;5.530;2023-07-20T12:22:03;1.00;;;0.80;;
59788;SDS011;47353;51.614;5.530;2023-07-20T12:24:28;10.40;;;2.13;;
59788;SDS011;47353;51.614;5.530;2023-07-20T12:26:57;2.03;;;1.10;;
59788;SDS011;47353;51.614;5.530;2023-07-20T12:29:23;4.03;;;1.25;;
59788;SDS011;47353;51.614;5.530;2023-07-20T12:31:49;1.77;;;0.98;;
59788;SDS011;47353;51.614;5.530;2023-07-20T12:34:14;6.22;;;3.30;;
59788;SDS011;47353;51.614;5.530;2023-07-20T12:36:40;2.42;;;0.82;;
59788;SDS011;47353;51.614;5.530;2023-07-20T12:39:05;12.15;;;1.48;;
59788;SDS011;47353;51.614;5.530;2023-07-20T12:41:31;2.35;;;1.13;;
59788;SDS011;47353;51.614;5.530;2023-07-20T12:43:56;1.73;;;1.27;;
59788;SDS011;47353;51.614;5.530;2023-07-20T12:46:23;2.97;;;1.20;;
59788;SDS011;47353;51.614;5.530;2023-07-20T12:48:49;3.47;;;1.15;;
59788;SDS011;47353;51.614;5.530;2023-07-20T12:51:14;1.58;;;0.90;;
59788;SDS011;47353;51.614;5.530;2023-07-20T12:53:40;2.58;;;1.10;;
59788;SDS011;47353;51.614;5.530;2023-07-20T12:56:05;1.35;;;1.00;;
59788;SDS011;47353;51.614;5.530;2023-07-20T12:58:31;1.00;;;0.90;;
59788;SDS011;47353;51.614;5.530;2023-07-20T13:00:57;3.25;;;1.00;;
59788;SDS011;47353;51.614;5.530;2023-07-20T13:03:22;2.10;;;1.10;;
59788;SDS011;47353;51.614;5.530;2023-07-20T13:05:48;1.88;;;1.10;;
59788;SDS011;47353;51.614;5.530;2023-07-20T13:08:14;2.28;;;1.38;;
59788;SDS011;47353;51.614;5.530;2023-07-20T13:10:40;2.45;;;1.52;;
59788;SDS011;47353;51.614;5.530;2023-07-20T13:13:05;1.73;;;1.05;;
59788;SDS011;47353;51.614;5.530;2023-07-20T13:15:32;3.63;;;1.83;;
59788;SDS011;47353;51.614;5.530;2023-07-20T13:18:05;2.45;;;1.50;;
59788;SDS011;47353;51.614;5.530;2023-07-20T13:20:30;5.32;;;1.50;;
59788;SDS011;47353;51.614;5.530;2023-07-20T13:22:56;2.20;;;1.35;;
59788;SDS011;47353;51.614;5.530;2023-07-20T13:25:21;2.22;;;1.10;;
59788;SDS011;47353;51.614;5.530;2023-07-20T13:27:46;1.60;;;1.27;;
59788;SDS011;47353;51.614;5.530;2023-07-20T13:30:12;1.55;;;0.95;;
59788;SDS011;47353;51.614;5.530;2023-07-20T13:32:42;4.47;;;2.58;;
59788;SDS011;47353;51.614;5.530;2023-07-20T13:35:08;3.05;;;1.70;;
59788;SDS011;47353;51.614;5.530;2023-07-20T13:37:34;1.20;;;1.10;;
59788;SDS011;47353;51.614;5.530;2023-07-20T13:39:59;1.40;;;1.05;;
59788;SDS011;47353;51.614;5.530;2023-07-20T13:42:24;1.67;;;1.00;;
59788;SDS011;47353;51.614;5.530;2023-07-20T13:44:50;3.20;;;1.27;;
59788;SDS011;47353;51.614;5.530;2023-07-20T13:47:16;1.40;;;1.15;;
59788;SDS011;47353;51.614;5.530;2023-07-20T13:49:43;1.83;;;1.27;;
59788;SDS011;47353;51.614;5.530;2023-07-20T13:52:08;3.50;;;1.30;;
59788;SDS011;47353;51.614;5.530;2023-07-20T13:54:34;2.22;;;1.08;;
59788;SDS011;47353;51.614;5.530;2023-07-20T13:56:59;1.38;;;1.10;;
59788;SDS011;47353;51.614;5.530;2023-07-20T13:59:25;3.78;;;1.30;;
59788;SDS011;47353;51.614;5.530;2023-07-20T14:01:50;3.72;;;2.10;;
59788;SDS011;47353;51.614;5.530;2023-07-20T14:04:15;3.60;;;1.30;;
59788;SDS011;47353;51.614;5.530;2023-07-20T14:06:41;1.92;;;1.17;;
59788;SDS011;47353;51.614;5.530;2023-07-20T14:09:07;2.25;;;1.20;;
59788;SDS011;47353;51.614;5.530;2023-07-20T14:11:33;2.60;;;1.63;;
59788;SDS011;47353;51.614;5.530;2023-07-20T14:13:58;2.58;;;1.45;;
59788;SDS011;47353;51.614;5.530;2023-07-20T14:16:24;1.45;;;1.10;;
59788;SDS011;47353;51.614;5.530;2023-07-20T14:18:50;2.92;;;1.20;;
59788;SDS011;47353;51.614;5.530;2023-07-20T14:21:16;1.45;;;0.88;;
59788;SDS011;47353;51.614;5.530;2023-07-20T14:23:44;4.65;;;1.60;;
59788;SDS011;47353;51.614;5.530;2023-07-20T14:26:14;3.17;;;2.00;;
59788;SDS011;47353;51.614;5.530;2023-07-20T14:28:40;1.50;;;1.10;;
59788;SDS011;47353;51.614;5.530;2023-07-20T14:31:05;2.15;;;1.10;;
59788;SDS011;47353;51.614;5.530;2023-07-20T14:33:31;2.10;;;1.00;;
59788;SDS011;47353;51.614;5.530;2023-07-20T14:35:57;1.88;;;1.48;;
59788;SDS011;47353;51.614;5.530;2023-07-20T14:38:22;2.00;;;1.00;;
59788;SDS011;47353;51.614;5.530;2023-07-20T14:40:48;1.85;;;1.10;;
59788;SDS011;47353;51.614;5.530;2023-07-20T14:43:13;1.38;;;0.93;;
59788;SDS011;47353;51.614;5.530;2023-07-20T14:45:42;3.17;;;2.40;;
59788;SDS011;47353;51.614;5.530;2023-07-20T14:48:07;2.05;;;1.30;;
59788;SDS011;47353;51.614;5.530;2023-07-20T14:50:33;2.15;;;1.23;;